Wetterdaten: Woche 02.05.05 - 08.05.05 (KW18)
Datum Zeit Temperatur Luftfeuchte Luftdruck Niederschlag Windrichtung Wind
02.05.2005 00:00 13,9 C 72 % 1016 hPa 0,0 l/m N 0,0 km/h (0 Bft)
02.05.2005 01:00 13,0 C 76 % 1016 hPa 0,0 l/m N 0,0 km/h (0 Bft)
02.05.2005 02:00 12,1 C 81 % 1016 hPa 0,0 l/m N 0,0 km/h (0 Bft)
02.05.2005 03:00 11,8 C 85 % 1016 hPa 0,0 l/m N 0,0 km/h (0 Bft)
02.05.2005 04:00 11,0 C 86 % 1016 hPa 0,0 l/m N 0,0 km/h (0 Bft)
02.05.2005 05:00 10,5 C 88 % 1016 hPa 0,0 l/m N 0,0 km/h (0 Bft)
02.05.2005 06:00 10,1 C 90 % 1016 hPa 0,0 l/m N 0,0 km/h (0 Bft)
02.05.2005 07:00 11,1 C 92 % 1017 hPa 0,0 l/m N 0,0 km/h (0 Bft)
02.05.2005 08:00 14,3 C 79 % 1017 hPa 0,0 l/m SO 0,7 km/h (0 Bft)
02.05.2005 09:00 18,4 C 61 % 1017 hPa 0,0 l/m S 7,0 km/h (2 Bft)
02.05.2005 10:00 22,5 C 44 % 1017 hPa 0,0 l/m S 10,6 km/h (2 Bft)
02.05.2005 11:00 24,8 C 36 % 1017 hPa 0,0 l/m S 14,1 km/h (3 Bft)
02.05.2005 12:00 26,1 C 35 % 1016 hPa 0,0 l/m S-SW 13,1 km/h (3 Bft)
02.05.2005 13:00 27,4 C 31 % 1016 hPa 0,0 l/m S-SW 16,4 km/h (3 Bft)
02.05.2005 14:00 28,1 C 30 % 1016 hPa 0,0 l/m S-SW 15,0 km/h (3 Bft)
02.05.2005 15:00 28,6 C 24 % 1016 hPa 0,0 l/m W 16,8 km/h (3 Bft)
02.05.2005 16:00 26,9 C 26 % 1016 hPa 0,0 l/m W 18,1 km/h (3 Bft)
02.05.2005 17:00 25,1 C 29 % 1016 hPa 0,0 l/m SW 11,7 km/h (2 Bft)
02.05.2005 18:00 24,5 C 32 % 1017 hPa 0,0 l/m SW 10,0 km/h (2 Bft)
02.05.2005 19:00 23,4 C 35 % 1017 hPa 0,0 l/m W-SW 9,2 km/h (2 Bft)
02.05.2005 20:00 21,6 C 42 % 1018 hPa 0,0 l/m W-SW 7,4 km/h (2 Bft)
02.05.2005 21:00 19,7 C 49 % 1018 hPa 0,0 l/m W-SW 2,0 km/h (1 Bft)
02.05.2005 22:00 18,8 C 53 % 1018 hPa 0,0 l/m W-SW 0,3 km/h (0 Bft)
02.05.2005 23:00 18,0 C 59 % 1018 hPa 0,0 l/m N 0,0 km/h (0 Bft)
03.05.2005 00:00 16,6 C 65 % 1018 hPa 0,0 l/m N 0,0 km/h (0 Bft)
03.05.2005 01:00 16,2 C 68 % 1018 hPa 0,0 l/m N 0,0 km/h (0 Bft)
03.05.2005 02:00 15,5 C 71 % 1018 hPa 0,0 l/m N 0,0 km/h (0 Bft)
03.05.2005 03:00 15,4 C 71 % 1018 hPa 0,0 l/m N 0,1 km/h (0 Bft)
03.05.2005 04:00 16,3 C 55 % 1018 hPa 0,0 l/m W 15,6 km/h (3 Bft)
03.05.2005 05:00 16,1 C 57 % 1018 hPa 0,0 l/m NW 18,2 km/h (3 Bft)
03.05.2005 06:00 14,5 C 75 % 1019 hPa 1,0 l/m W 11,8 km/h (2 Bft)
03.05.2005 07:00 13,2 C 87 % 1019 hPa 0,0 l/m N 0,7 km/h (0 Bft)
03.05.2005 08:00 13,0 C 93 % 1019 hPa 0,0 l/m S-SW 5,8 km/h (2 Bft)
03.05.2005 09:00 13,2 C 97 % 1019 hPa 1,0 l/m S 8,9 km/h (2 Bft)
03.05.2005 10:00 13,6 C 98 % 1018 hPa 1,0 l/m S-SW 12,8 km/h (3 Bft)
03.05.2005 11:00 14,3 C 95 % 1018 hPa 0,0 l/m S 14,9 km/h (3 Bft)
03.05.2005 12:00 15,0 C 91 % 1018 hPa 0,0 l/m S 21,3 km/h (4 Bft)
03.05.2005 14:00 19,6 C 64 % 1017 hPa 0,0 l/m S-SW 18,2 km/h (3 Bft)
03.05.2005 15:00 20,7 C 54 % 1015 hPa 0,0 l/m S-SW 18,5 km/h (3 Bft)
03.05.2005 16:00 19,9 C 51 % 1015 hPa 0,0 l/m W-SW 16,1 km/h (3 Bft)
03.05.2005 17:00 15,6 C 76 % 1016 hPa 1,0 l/m W 21,5 km/h (4 Bft)
03.05.2005 18:00 13,2 C 90 % 1017 hPa 0,0 l/m W-SW 13,7 km/h (3 Bft)
03.05.2005 19:00 12,8 C 91 % 1017 hPa 0,0 l/m S-SW 13,7 km/h (3 Bft)
03.05.2005 20:00 12,5 C 94 % 1017 hPa 0,0 l/m S-SW 18,5 km/h (3 Bft)
03.05.2005 21:00 12,1 C 97 % 1017 hPa 0,0 l/m S-SW 13,3 km/h (3 Bft)
03.05.2005 22:00 11,9 C 97 % 1018 hPa 0,0 l/m S-SW 10,0 km/h (2 Bft)
03.05.2005 23:00 11,8 C 96 % 1018 hPa 0,0 l/m S-SW 9,5 km/h (2 Bft)
04.05.2005 00:00 11,7 C 96 % 1017 hPa 0,0 l/m W-SW 9,0 km/h (2 Bft)
04.05.2005 01:00 11,8 C 96 % 1017 hPa 1,0 l/m W-SW 10,6 km/h (2 Bft)
04.05.2005 02:00 11,2 C 93 % 1017 hPa 0,0 l/m W-SW 9,0 km/h (2 Bft)
04.05.2005 03:00 10,5 C 94 % 1017 hPa 0,0 l/m S-SW 13,4 km/h (3 Bft)
04.05.2005 04:00 10,2 C 95 % 1017 hPa 0,0 l/m W-SW 13,8 km/h (3 Bft)
04.05.2005 05:00 10,1 C 92 % 1016 hPa 0,0 l/m S-SW 10,7 km/h (2 Bft)
04.05.2005 06:00 9,6 C 98 % 1016 hPa 0,0 l/m S-SW 10,9 km/h (2 Bft)
04.05.2005 07:00 10,1 C 96 % 1016 hPa 0,0 l/m S-SW 12,4 km/h (3 Bft)
04.05.2005 08:00 10,6 C 91 % 1016 hPa 0,0 l/m S-SW 11,3 km/h (2 Bft)
04.05.2005 09:00 12,1 C 81 % 1016 hPa 0,0 l/m S-SW 15,8 km/h (3 Bft)
04.05.2005 10:00 14,3 C 65 % 1016 hPa 0,0 l/m S-SW 18,6 km/h (3 Bft)
04.05.2005 11:00 14,4 C 62 % 1015 hPa 1,0 l/m W-SW 16,9 km/h (3 Bft)
04.05.2005 12:00 12,2 C 82 % 1015 hPa 5,0 l/m W 14,0 km/h (3 Bft)
04.05.2005 13:00 11,2 C 89 % 1016 hPa 0,0 l/m W 15,0 km/h (3 Bft)
04.05.2005 14:00 13,7 C 69 % 1015 hPa 0,0 l/m W 15,4 km/h (3 Bft)
04.05.2005 15:00 12,7 C 76 % 1015 hPa 1,0 l/m W-SW 7,4 km/h (2 Bft)
04.05.2005 16:00 13,4 C 81 % 1015 hPa 0,0 l/m S-SW 6,1 km/h (2 Bft)
04.05.2005 17:00 12,0 C 74 % 1015 hPa 0,0 l/m W 17,1 km/h (3 Bft)
04.05.2005 18:00 12,7 C 67 % 1015 hPa 0,0 l/m W-SW 11,0 km/h (2 Bft)
04.05.2005 19:00 13,0 C 61 % 1014 hPa 0,0 l/m W-SW 9,6 km/h (2 Bft)
04.05.2005 20:00 11,2 C 71 % 1014 hPa 0,0 l/m W-SW 3,3 km/h (1 Bft)
04.05.2005 21:00 10,2 C 77 % 1015 hPa 0,0 l/m W-SW 4,3 km/h (1 Bft)
04.05.2005 22:00 10,0 C 81 % 1015 hPa 0,0 l/m S-SW 7,5 km/h (2 Bft)
04.05.2005 23:00 9,7 C 87 % 1015 hPa 0,0 l/m S 4,9 km/h (1 Bft)
05.05.2005 00:00 9,5 C 92 % 1015 hPa 2,0 l/m S-SW 5,4 km/h (1 Bft)
05.05.2005 01:00 9,1 C 95 % 1015 hPa 0,0 l/m S 4,5 km/h (1 Bft)
05.05.2005 02:00 9,0 C 95 % 1015 hPa 0,0 l/m W-SW 5,2 km/h (1 Bft)
05.05.2005 03:00 8,6 C 95 % 1015 hPa 0,0 l/m W-SW 2,7 km/h (1 Bft)
05.05.2005 04:00 8,3 C 96 % 1014 hPa 0,0 l/m S-SW 2,9 km/h (1 Bft)
05.05.2005 05:00 8,2 C 96 % 1014 hPa 0,0 l/m W 1,9 km/h (1 Bft)
05.05.2005 06:00 8,2 C 95 % 1015 hPa 0,0 l/m W-SW 0,8 km/h (0 Bft)
05.05.2005 07:00 8,4 C 96 % 1015 hPa 0,0 l/m S 0,4 km/h (0 Bft)
05.05.2005 08:00 8,9 C 94 % 1015 hPa 0,0 l/m W 5,9 km/h (2 Bft)
05.05.2005 09:00 9,7 C 87 % 1015 hPa 0,0 l/m W-SW 5,1 km/h (1 Bft)
05.05.2005 10:00 10,8 C 79 % 1015 hPa 0,0 l/m W 8,8 km/h (2 Bft)
05.05.2005 11:00 12,5 C 70 % 1015 hPa 0,0 l/m W 7,5 km/h (2 Bft)
05.05.2005 12:00 13,6 C 65 % 1015 hPa 0,0 l/m W 8,5 km/h (2 Bft)
05.05.2005 13:00 13,1 C 73 % 1015 hPa 0,0 l/m W 11,5 km/h (2 Bft)
05.05.2005 14:00 15,3 C 57 % 1015 hPa 0,0 l/m W 12,2 km/h (3 Bft)
05.05.2005 15:00 15,1 C 56 % 1014 hPa 0,0 l/m W 16,4 km/h (3 Bft)
05.05.2005 16:00 14,5 C 59 % 1015 hPa 0,0 l/m W 9,2 km/h (2 Bft)
05.05.2005 17:00 14,2 C 62 % 1015 hPa 0,0 l/m W 18,7 km/h (3 Bft)
05.05.2005 18:00 12,2 C 75 % 1015 hPa 0,0 l/m O-NO 8,7 km/h (2 Bft)
05.05.2005 19:00 11,2 C 81 % 1015 hPa 0,0 l/m S 3,1 km/h (1 Bft)
05.05.2005 20:00 10,8 C 85 % 1016 hPa 0,0 l/m W 1,7 km/h (1 Bft)
05.05.2005 21:00 10,2 C 84 % 1016 hPa 0,0 l/m W 0,7 km/h (0 Bft)
05.05.2005 22:00 9,6 C 86 % 1016 hPa 0,0 l/m W 4,8 km/h (1 Bft)
05.05.2005 23:00 8,5 C 87 % 1017 hPa 0,0 l/m W 0,2 km/h (0 Bft)
06.05.2005 00:00 7,8 C 88 % 1017 hPa 0,0 l/m N 0,0 km/h (0 Bft)
06.05.2005 01:00 8,0 C 90 % 1017 hPa 0,0 l/m W 1,0 km/h (0 Bft)
06.05.2005 02:00 8,3 C 80 % 1017 hPa 0,0 l/m NW 3,9 km/h (1 Bft)
06.05.2005 03:00 8,1 C 67 % 1016 hPa 0,0 l/m NW 11,8 km/h (2 Bft)
06.05.2005 04:00 7,1 C 73 % 1017 hPa 0,0 l/m NW 1,3 km/h (1 Bft)
06.05.2005 05:00 6,6 C 81 % 1016 hPa 1,0 l/m N 0,0 km/h (0 Bft)
06.05.2005 06:00 6,3 C 90 % 1016 hPa 0,0 l/m S 3,3 km/h (1 Bft)
06.05.2005 07:00 6,0 C 95 % 1016 hPa 1,0 l/m S-SW 11,4 km/h (2 Bft)
06.05.2005 08:00 6,4 C 99 % 1017 hPa 0,0 l/m S-SW 14,6 km/h (3 Bft)
06.05.2005 09:00 7,2 C 99 % 1017 hPa 0,0 l/m S 13,2 km/h (3 Bft)
06.05.2005 10:00 7,4 C 95 % 1017 hPa 0,0 l/m SW 15,7 km/h (3 Bft)
06.05.2005 11:00 7,3 C 90 % 1017 hPa 0,0 l/m W-SW 16,2 km/h (3 Bft)
06.05.2005 12:00 8,0 C 87 % 1017 hPa 0,0 l/m SW 18,3 km/h (3 Bft)
06.05.2005 13:00 8,1 C 87 % 1017 hPa 0,0 l/m S-SW 19,9 km/h (4 Bft)
06.05.2005 14:00 8,6 C 86 % 1017 hPa 2,0 l/m SW 17,8 km/h (3 Bft)
06.05.2005 15:00 10,2 C 79 % 1016 hPa 0,0 l/m S-SW 20,2 km/h (4 Bft)
06.05.2005 16:00 9,9 C 80 % 1016 hPa 0,0 l/m SW 18,9 km/h (3 Bft)
06.05.2005 17:00 10,1 C 78 % 1016 hPa 0,0 l/m W-SW 18,4 km/h (3 Bft)
06.05.2005 18:00 9,8 C 80 % 1016 hPa 0,0 l/m W-SW 14,6 km/h (3 Bft)
06.05.2005 19:00 9,1 C 87 % 1016 hPa 0,0 l/m W-SW 13,7 km/h (3 Bft)
06.05.2005 20:00 8,8 C 89 % 1016 hPa 0,0 l/m W-SW 13,5 km/h (3 Bft)
06.05.2005 21:00 8,4 C 89 % 1017 hPa 1,0 l/m W-SW 12,4 km/h (3 Bft)
06.05.2005 22:00 7,6 C 87 % 1017 hPa 0,0 l/m W-SW 11,0 km/h (2 Bft)
06.05.2005 23:00 7,4 C 89 % 1017 hPa 0,0 l/m W-SW 10,9 km/h (2 Bft)
07.05.2005 00:00 7,2 C 90 % 1017 hPa 0,0 l/m W-SW 11,1 km/h (2 Bft)
07.05.2005 01:00 6,9 C 91 % 1017 hPa 0,0 l/m SW 9,7 km/h (2 Bft)
07.05.2005 02:00 6,8 C 93 % 1017 hPa 0,0 l/m S-SW 10,3 km/h (2 Bft)
07.05.2005 03:00 6,7 C 99 % 1016 hPa 0,0 l/m S-SW 10,8 km/h (2 Bft)
07.05.2005 04:00 7,0 C 97 % 1016 hPa 0,0 l/m S 15,2 km/h (3 Bft)
07.05.2005 05:00 7,0 C 97 % 1015 hPa 0,0 l/m SW 12,6 km/h (3 Bft)
07.05.2005 06:00 6,8 C 98 % 1014 hPa 0,0 l/m S-SW 12,4 km/h (3 Bft)
07.05.2005 07:00 7,3 C 100 % 1014 hPa 0,0 l/m S-SW 13,4 km/h (3 Bft)
07.05.2005 08:00 8,5 C 87 % 1014 hPa 0,0 l/m SW 17,4 km/h (3 Bft)
07.05.2005 09:00 9,3 C 78 % 1013 hPa 0,0 l/m SW 19,8 km/h (4 Bft)
07.05.2005 10:00 9,8 C 74 % 1013 hPa 0,0 l/m SW 21,6 km/h (4 Bft)
07.05.2005 11:00 9,1 C 83 % 1012 hPa 1,0 l/m W-SW 18,9 km/h (3 Bft)
07.05.2005 12:00 9,0 C 90 % 1011 hPa 1,0 l/m SW 20,3 km/h (4 Bft)
07.05.2005 13:00 9,4 C 88 % 1011 hPa 0,0 l/m SW 22,0 km/h (4 Bft)
07.05.2005 14:00 10,1 C 83 % 1010 hPa 0,0 l/m W-SW 22,5 km/h (4 Bft)
07.05.2005 15:00 9,7 C 81 % 1010 hPa 0,0 l/m W-SW 23,9 km/h (4 Bft)
07.05.2005 16:00 9,9 C 85 % 1010 hPa 0,0 l/m SW 19,5 km/h (3 Bft)
07.05.2005 17:00 10,7 C 75 % 1009 hPa 0,0 l/m W-SW 24,6 km/h (4 Bft)
07.05.2005 18:00 10,6 C 73 % 1009 hPa 0,0 l/m W-SW 25,7 km/h (4 Bft)
07.05.2005 19:00 9,2 C 80 % 1009 hPa 3,0 l/m SW 25,9 km/h (4 Bft)
07.05.2005 20:00 7,6 C 91 % 1009 hPa 0,0 l/m W 19,0 km/h (3 Bft)
07.05.2005 21:00 6,8 C 86 % 1010 hPa 0,0 l/m W 16,7 km/h (3 Bft)
07.05.2005 22:00 6,0 C 89 % 1011 hPa 0,0 l/m SW 5,7 km/h (1 Bft)
07.05.2005 23:00 5,8 C 94 % 1011 hPa 0,0 l/m W-SW 7,7 km/h (2 Bft)
08.05.2005 00:00 5,8 C 95 % 1011 hPa 0,0 l/m W-SW 2,9 km/h (1 Bft)
08.05.2005 01:00 5,5 C 94 % 1011 hPa 0,0 l/m W-SW 8,4 km/h (2 Bft)
08.05.2005 02:00 5,2 C 90 % 1011 hPa 0,0 l/m W-SW 10,7 km/h (2 Bft)
08.05.2005 03:00 5,0 C 88 % 1012 hPa 0,0 l/m W-SW 9,3 km/h (2 Bft)
08.05.2005 04:00 4,6 C 87 % 1012 hPa 0,0 l/m S 2,6 km/h (1 Bft)
08.05.2005 05:00 3,9 C 88 % 1012 hPa 0,0 l/m W-SW 7,2 km/h (2 Bft)
08.05.2005 06:00 3,9 C 83 % 1013 hPa 0,0 l/m W-SW 10,9 km/h (2 Bft)
08.05.2005 07:00 3,9 C 84 % 1014 hPa 0,0 l/m W-SW 9,6 km/h (2 Bft)
08.05.2005 08:00 5,2 C 77 % 1014 hPa 0,0 l/m W-SW 13,3 km/h (3 Bft)
08.05.2005 09:00 6,6 C 66 % 1014 hPa 0,0 l/m W-SW 13,8 km/h (3 Bft)
08.05.2005 10:00 7,5 C 59 % 1014 hPa 0,0 l/m W-SW 18,3 km/h (3 Bft)
08.05.2005 11:00 7,3 C 65 % 1014 hPa 1,0 l/m W-SW 16,7 km/h (3 Bft)
08.05.2005 12:00 8,5 C 63 % 1014 hPa 0,0 l/m W-SW 17,4 km/h (3 Bft)
08.05.2005 13:00 9,9 C 46 % 1014 hPa 0,0 l/m W 20,2 km/h (4 Bft)
08.05.2005 14:00 11,1 C 41 % 1014 hPa 0,0 l/m W 18,6 km/h (3 Bft)
08.05.2005 15:00 11,2 C 41 % 1013 hPa 0,0 l/m W-SW 17,1 km/h (3 Bft)
08.05.2005 16:00 11,6 C 39 % 1013 hPa 0,0 l/m W-SW 17,5 km/h (3 Bft)
08.05.2005 17:00 11,6 C 39 % 1012 hPa 0,0 l/m SW 16,2 km/h (3 Bft)
08.05.2005 18:00 11,1 C 40 % 1012 hPa 0,0 l/m W-SW 15,3 km/h (3 Bft)
08.05.2005 19:00 9,9 C 48 % 1012 hPa 0,0 l/m N-NW 12,6 km/h (3 Bft)
08.05.2005 20:00 8,4 C 60 % 1012 hPa 0,0 l/m NW 9,2 km/h (2 Bft)
08.05.2005 21:00 7,4 C 66 % 1012 hPa 0,0 l/m S-SW 3,7 km/h (1 Bft)
08.05.2005 22:00 7,1 C 65 % 1013 hPa 0,0 l/m W-SW 3,4 km/h (1 Bft)
08.05.2005 23:00 7,0 C 63 % 1012 hPa 0,0 l/m W-SW 6,9 km/h (2 Bft)
Min-Datum _ 08.05.05 02.05.05 07.05.05 - - 02.05.05
_ Min-Zeit 07:14 15:39 18:25 - - 00:00
Minimum _ 3,6 C 22 % 1008 hPa - - 0,0 km/h (0 Bft)
Max-Datum _ 02.05.05 06.05.05 03.05.05 04.05.05 - 07.05.05
_ Max-Zeit 15:24 08:37 06:29 12:21 - 13:07
Maximum _ 28,8 C 100 % 1019 hPa 5,0 l/m - 48,4 km/h
SW (6 Bft)
Durchschnitt _ 11,4 C 77 % 1015 hPa #25,0 l/m W-SW 10,8 km/h (2 Bft)

Durchschnitt Minimum Temp.11,0 C
Durchschnitt Maximum Temp.11,9 C